Time;durP1;ratioP1;P1;durP2;ratioP2;P2;SDS_P1;SDS_P2;PMS_P1;PMS_P2;Temp;Humidity;BMP_temperature;BMP_pressure;BME280_temperature;BME280_humidity;BME280_pressure;Samples;Min_cycle;Max_cycle;Signal;HPM_P1;HPM_P2
2021/08/04 00:01:35;;;;;;;4.03;1.65;;;;;;;;;;4965644;29;20238;-89
2021/08/04 00:04:01;;;;;;;5.15;2.13;;;15.30;99.90;;;;;;4946247;29;20210;-87
2021/08/04 00:06:27;;;;;;;3.00;1.80;;;15.00;99.90;;;;;;4915203;29;20617;-86
2021/08/04 00:08:54;;;;;;;7.93;2.03;;;15.20;99.90;;;;;;4944672;29;20221;-86
2021/08/04 00:11:21;;;;;;;3.88;1.67;;;15.40;99.90;;;;;;4926716;29;20663;-87
2021/08/04 00:13:47;;;;;;;6.22;3.30;;;;;;;;;;4914489;29;20328;-88
2021/08/04 00:16:12;;;;;;;2.67;1.70;;;15.20;99.90;;;;;;4922350;29;20211;-87
2021/08/04 00:18:38;;;;;;;3.08;2.08;;;;;;;;;;4920386;29;20184;-89
2021/08/04 00:21:04;;;;;;;4.15;1.70;;;15.10;99.90;;;;;;4904950;29;20189;-87
2021/08/04 00:23:30;;;;;;;1.85;1.50;;;15.10;99.90;;;;;;4889697;29;20283;-88
2021/08/04 00:25:57;;;;;;;5.18;1.73;;;15.10;99.90;;;;;;4920488;29;20239;-89
2021/08/04 00:28:23;;;;;;;3.83;1.90;;;;;;;;;;4905729;29;20200;-88
2021/08/04 00:30:48;;;;;;;4.82;2.10;;;14.90;99.90;;;;;;4904176;29;20196;-88
2021/08/04 00:33:15;;;;;;;1.85;1.65;;;;;;;;;;4921187;29;20180;-88
2021/08/04 00:35:40;;;;;;;4.85;2.10;;;14.90;99.90;;;;;;4918919;29;20234;-88
2021/08/04 00:38:14;;;;;;;4.50;1.50;;;15.20;99.90;;;;;;4918982;29;20665;-88
2021/08/04 00:40:41;;;;;;;13.57;1.77;;;14.80;99.90;;;;;;4918992;29;20172;-87
2021/08/04 00:43:07;;;;;;;1.77;1.42;;;14.90;99.90;;;;;;4904928;29;20267;-88
2021/08/04 00:45:37;;;;;;;5.57;1.63;;;14.80;99.90;;;;;;4892489;29;20196;-89
2021/08/04 00:48:04;;;;;;;5.78;1.88;;;14.80;99.90;;;;;;4942685;29;20168;-87
2021/08/04 00:50:30;;;;;;;4.53;1.92;;;15.40;99.90;;;;;;4943167;29;20149;-87
2021/08/04 00:52:56;;;;;;;7.47;1.88;;;14.50;99.90;;;;;;4932538;29;20192;-88
2021/08/04 00:55:26;;;;;;;9.82;1.88;;;14.80;99.90;;;;;;4921462;29;20211;-89
2021/08/04 00:57:52;;;;;;;7.97;1.85;;;;;;;;;;4921609;29;20211;-88
2021/08/04 01:00:18;;;;;;;5.15;1.80;;;14.70;99.90;;;;;;4921158;29;20180;-89
2021/08/04 01:02:50;;;;;;;3.15;1.80;;;14.90;99.90;;;;;;4918078;29;20187;-90
2021/08/04 01:05:42;;;;;;;4.80;1.67;;;15.50;99.90;;;;;;4921260;29;20168;-89
2021/08/04 01:08:12;;;;;;;3.60;1.73;;;14.80;99.90;;;;;;4919004;29;20177;-89
2021/08/04 01:10:47;;;;;;;3.97;1.67;;;14.70;99.90;;;;;;4919071;29;20627;-90
2021/08/04 01:13:14;;;;;;;8.15;1.55;;;14.90;99.90;;;;;;4927842;28;20230;-89
2021/08/04 01:15:52;;;;;;;3.33;1.33;;;14.90;99.90;;;;;;4941466;29;20285;-89
2021/08/04 01:18:31;;;;;;;1.52;1.42;;;14.80;99.90;;;;;;4942137;29;20191;-89
2021/08/04 01:20:57;;;;;;;4.07;1.38;;;;;;;;;;4942957;29;20175;-89
2021/08/04 01:23:42;;;;;;;13.15;2.05;;;15.10;99.90;;;;;;4944416;29;20183;-89
2021/08/04 01:26:18;;;;;;;7.90;1.77;;;14.80;99.90;;;;;;4944728;29;20249;-89
2021/08/04 01:28:49;;;;;;;9.20;1.90;;;14.80;99.90;;;;;;4960833;29;20168;-89
2021/08/04 01:31:23;;;;;;;5.90;1.65;;;14.70;99.90;;;;;;4941361;29;20172;-89
2021/08/04 01:33:51;;;;;;;3.85;1.48;;;14.50;99.90;;;;;;4939913;29;20187;-89
2021/08/04 01:36:17;;;;;;;2.53;1.55;;;14.70;99.90;;;;;;4940130;29;20268;-89
2021/08/04 01:38:44;;;;;;;1.92;1.40;;;14.60;99.90;;;;;;4940039;29;20195;-90
2021/08/04 01:41:11;;;;;;;4.70;1.30;;;14.50;99.90;;;;;;4923946;29;20210;-89
2021/08/04 01:43:39;;;;;;;7.97;2.17;;;13.80;99.90;;;;;;4939714;29;20179;-90
2021/08/04 01:46:07;;;;;;;4.30;1.60;;;14.40;99.90;;;;;;4956659;29;20192;-89
2021/08/04 01:48:36;;;;;;;4.43;1.83;;;14.30;99.90;;;;;;4939926;29;20210;-89
2021/08/04 01:51:03;;;;;;;6.18;2.13;;;14.30;99.90;;;;;;4939441;29;20624;-89
2021/08/04 01:53:30;;;;;;;5.72;2.10;;;14.10;99.90;;;;;;4939715;29;20606;-90
2021/08/04 01:55:57;;;;;;;5.68;1.90;;;14.30;99.90;;;;;;4939204;29;20221;-90
2021/08/04 01:58:23;;;;;;;4.28;2.00;;;;;;;;;;4939826;29;20187;-89
2021/08/04 02:00:49;;;;;;;7.75;2.22;;;14.20;99.90;;;;;;4956647;29;20171;-90
2021/08/04 02:03:14;;;;;;;9.00;2.30;;;14.10;99.90;;;;;;4956283;29;20266;-90
2021/08/04 02:05:41;;;;;;;5.70;2.08;;;;;;;;;;4956096;29;20226;-91
2021/08/04 02:08:25;;;;;;;4.93;2.33;;;14.20;99.90;;;;;;4956301;29;20183;-90
2021/08/04 02:11:12;;;;;;;8.90;2.45;;;14.10;99.90;;;;;;4939181;29;20183;-90
2021/08/04 02:14:02;;;;;;;10.30;3.17;;;14.10;99.90;;;;;;4938798;29;20222;-89
2021/08/04 02:16:37;;;;;;;5.93;2.33;;;14.00;99.90;;;;;;4956846;29;20174;-89
2021/08/04 02:19:11;;;;;;;6.97;2.30;;;14.00;99.90;;;;;;4938792;29;20183;-89
2021/08/04 02:21:41;;;;;;;7.25;2.40;;;17.50;99.90;;;;;;4939032;29;20178;-89
2021/08/04 02:24:07;;;;;;;5.30;2.00;;;;;;;;;;4956143;29;20179;-90
2021/08/04 02:26:34;;;;;;;4.20;2.13;;;14.00;99.90;;;;;;4939030;29;20234;-90
2021/08/04 02:29:02;;;;;;;4.28;2.25;;;14.00;99.90;;;;;;4938458;29;20179;-90
2021/08/04 02:31:28;;;;;;;12.60;2.83;;;13.80;99.90;;;;;;4938665;29;20265;-90
2021/08/04 02:33:55;;;;;;;6.88;3.03;;;13.20;99.90;;;;;;4938817;29;20191;-89
2021/08/04 02:36:21;;;;;;;6.93;2.40;;;13.90;99.90;;;;;;4959112;29;20727;-90
2021/08/04 02:38:47;;;;;;;6.93;2.30;;;13.90;99.90;;;;;;4938754;29;20229;-90
2021/08/04 02:41:14;;;;;;;6.68;2.50;;;13.90;99.90;;;;;;4938258;29;20226;-90
2021/08/04 02:43:41;;;;;;;10.15;2.33;;;;;;;;;;4923142;29;20215;-90
2021/08/04 02:46:07;;;;;;;5.60;2.60;;;;;;;;;;4938203;29;20533;-89
2021/08/04 02:48:34;;;;;;;5.13;2.50;;;13.80;99.90;;;;;;4942618;29;20202;-90
2021/08/04 02:51:08;;;;;;;6.55;2.90;;;13.80;99.90;;;;;;4938513;29;20190;-91
2021/08/04 02:53:34;;;;;;;9.50;2.90;;;;;;;;;;4938713;29;20275;-89
2021/08/04 02:55:59;;;;;;;5.00;2.70;;;13.80;99.90;;;;;;4938201;29;20278;-92
2021/08/04 02:58:25;;;;;;;7.38;3.30;;;;;;;;;;4938808;29;20179;-89
2021/08/04 03:00:51;;;;;;;4.13;2.75;;;13.80;99.90;;;;;;4922969;29;20186;-90
2021/08/04 03:03:18;;;;;;;8.73;2.92;;;13.70;99.90;;;;;;4923143;29;20194;-90
2021/08/04 03:05:43;;;;;;;3.50;2.70;;;13.70;99.90;;;;;;4939336;29;20215;-90
2021/08/04 03:08:11;;;;;;;3.67;2.50;;;13.70;99.90;;;;;;4956393;29;20183;-90
2021/08/04 03:10:38;;;;;;;4.30;3.00;;;;;;;;;;4924370;29;20271;-91
2021/08/04 03:13:04;;;;;;;4.28;3.03;;;;;;;;;;4939110;28;20545;-91
2021/08/04 03:15:31;;;;;;;7.90;3.17;;;;;;;;;;4923886;29;20214;-89
2021/08/04 03:17:57;;;;;;;3.80;3.05;;;;;;;;;;4923731;29;20286;-89
2021/08/04 03:20:23;;;;;;;4.70;3.58;;;;;;;;;;4939340;29;21037;-91
2021/08/04 03:22:49;;;;;;;7.65;3.55;;;13.80;99.90;;;;;;4957120;29;20194;-90
2021/08/04 03:25:18;;;;;;;6.13;3.47;;;13.70;99.90;;;;;;4939052;29;20179;-90
2021/08/04 03:27:44;;;;;;;7.43;3.25;;;13.70;99.90;;;;;;4941848;29;20543;-89
2021/08/04 03:30:11;;;;;;;4.88;3.28;;;13.70;99.90;;;;;;4926415;29;20184;-89
2021/08/04 03:32:37;;;;;;;6.18;3.08;;;13.70;99.90;;;;;;4959952;29;20183;-89
2021/08/04 03:35:05;;;;;;;6.82;3.70;;;17.20;99.90;;;;;;4942350;29;20215;-89
2021/08/04 03:37:31;;;;;;;7.63;3.65;;;;;;;;;;4960193;29;20266;-89
2021/08/04 03:39:57;;;;;;;5.68;3.72;;;13.80;99.90;;;;;;4944198;29;20183;-89
2021/08/04 03:42:23;;;;;;;7.07;3.50;;;;;;;;;;4929135;29;20183;-89
2021/08/04 03:44:49;;;;;;;11.13;3.80;;;13.80;99.90;;;;;;4957731;28;20187;-87
2021/08/04 03:47:15;;;;;;;6.43;3.40;;;;;;;;;;4965711;29;20191;-88
2021/08/04 03:49:41;;;;;;;10.90;4.22;;;;;;;;;;4948565;29;20197;-87
2021/08/04 03:52:07;;;;;;;11.63;3.85;;;;;;;;;;4949368;29;20193;-88
2021/08/04 03:54:33;;;;;;;14.13;4.35;;;14.00;99.90;;;;;;4964926;29;20243;-87
2021/08/04 03:56:59;;;;;;;11.55;3.92;;;;;;;;;;4927564;29;20207;-89
2021/08/04 03:59:25;;;;;;;8.35;3.78;;;;;;;;;;4926798;29;20187;-89
2021/08/04 04:01:53;;;;;;;12.07;3.95;;;14.10;99.90;;;;;;4944187;29;20578;-89
2021/08/04 04:04:19;;;;;;;10.52;3.50;;;;;;;;;;4943449;29;20179;-88
2021/08/04 04:06:45;;;;;;;13.30;3.58;;;14.30;99.90;;;;;;4947585;29;20238;-88
2021/08/04 04:09:11;;;;;;;10.63;3.42;;;;;;;;;;4966617;29;20183;-89
2021/08/04 04:11:37;;;;;;;4.68;3.40;;;14.40;99.90;;;;;;4947112;29;20230;-89
2021/08/04 04:14:03;;;;;;;11.07;3.33;;;;;;;;;;4972305;28;20242;-90
2021/08/04 04:16:30;;;;;;;10.75;3.35;;;14.50;99.90;;;;;;4946710;29;20628;-89
2021/08/04 04:18:56;;;;;;;6.88;3.90;;;;;;;;;;4959414;29;20183;-89
2021/08/04 04:21:22;;;;;;;7.53;3.90;;;;;;;;;;4925371;29;20246;-89
2021/08/04 04:23:48;;;;;;;8.40;4.05;;;14.60;99.90;;;;;;4941189;29;20289;-89
2021/08/04 04:26:14;;;;;;;7.15;3.88;;;17.80;99.90;;;;;;4957455;29;20660;-89
2021/08/04 04:28:40;;;;;;;8.90;4.15;;;;;;;;;;4958181;29;20211;-89
2021/08/04 04:31:06;;;;;;;8.20;3.80;;;;;;;;;;4941002;29;20268;-89
2021/08/04 04:33:34;;;;;;;6.75;3.55;;;15.00;99.90;;;;;;4925375;29;20201;-87
2021/08/04 04:36:00;;;;;;;6.88;4.15;;;15.20;99.90;;;;;;4942191;29;20238;-87
2021/08/04 04:38:26;;;;;;;7.50;3.70;;;15.10;99.90;;;;;;4924997;29;20226;-88
2021/08/04 04:40:52;;;;;;;10.50;3.78;;;15.20;99.90;;;;;;4958106;29;20179;-89
2021/08/04 04:43:18;;;;;;;5.97;3.10;;;;;;;;;;4924588;29;20184;-90
2021/08/04 04:45:44;;;;;;;11.75;3.45;;;;;;;;;;4940682;29;20202;-88
2021/08/04 04:48:10;;;;;;;7.90;3.55;;;;;;;;;;4940673;29;20179;-89
2021/08/04 04:50:36;;;;;;;5.15;3.78;;;15.90;99.90;;;;;;4940369;29;20187;-89
2021/08/04 04:53:02;;;;;;;5.63;3.85;;;16.10;99.90;;;;;;4958580;29;20230;-89
2021/08/04 04:55:28;;;;;;;6.70;3.63;;;;;;;;;;4924328;29;20223;-88
2021/08/04 04:57:54;;;;;;;7.80;5.75;;;15.90;99.90;;;;;;4957924;29;20167;-88
2021/08/04 05:00:20;;;;;;;9.55;4.00;;;;;;;;;;4940325;29;20187;-88
2021/08/04 05:02:46;;;;;;;6.15;4.28;;;;;;;;;;4957778;29;20179;-88
2021/08/04 05:05:12;;;;;;;4.68;3.42;;;;;;;;;;4941707;29;20536;-89
2021/08/04 05:07:38;;;;;;;5.80;3.78;;;16.50;99.90;;;;;;4939708;29;20186;-89
2021/08/04 05:10:04;;;;;;;5.13;4.00;;;16.30;99.90;;;;;;4940202;29;20180;-89
2021/08/04 05:12:30;;;;;;;6.30;4.35;;;16.40;99.90;;;;;;4939922;29;20180;-88
2021/08/04 05:14:56;;;;;;;7.53;4.00;;;;;;;;;;4924470;29;20238;-88
2021/08/04 05:17:22;;;;;;;9.52;3.95;;;16.50;99.90;;;;;;4940016;29;20187;-88
2021/08/04 05:19:48;;;;;;;9.00;4.28;;;;;;;;;;4956965;29;20653;-88
2021/08/04 05:22:16;;;;;;;7.28;4.88;;;16.50;99.90;;;;;;4957203;29;20182;-89
2021/08/04 05:24:43;;;;;;;6.70;3.47;;;;;;;;;;4957471;29;20191;-89
2021/08/04 05:27:09;;;;;;;10.30;3.60;;;;;;;;;;4957540;29;20250;-88
2021/08/04 05:29:35;;;;;;;9.30;4.53;;;;;;;;;;4939761;29;20240;-89
2021/08/04 05:32:01;;;;;;;8.93;4.40;;;17.00;99.90;;;;;;4959487;29;20662;-90
2021/08/04 05:34:27;;;;;;;5.78;3.95;;;;;;;;;;4953378;29;20215;-87
2021/08/04 05:36:53;;;;;;;5.90;3.80;;;;;;;;;;4935669;29;20191;-89
2021/08/04 05:39:19;;;;;;;5.72;3.63;;;;;;;;;;4943933;29;20250;-91
2021/08/04 05:41:45;;;;;;;11.35;3.70;;;;;;;;;;4947921;29;20180;-90
2021/08/04 05:44:11;;;;;;;7.35;3.22;;;;;;;;;;4959831;29;20218;-89
2021/08/04 05:46:37;;;;;;;10.40;3.42;;;;;;;;;;4942072;29;20199;-89
2021/08/04 05:49:04;;;;;;;7.10;3.38;;;;;;;;;;4942252;29;20233;-89
2021/08/04 05:51:30;;;;;;;10.18;3.90;;;;;;;;;;4943394;29;20183;-88
2021/08/04 05:53:56;;;;;;;7.03;4.72;;;;;;;;;;4943453;29;20180;-89
2021/08/04 05:56:21;;;;;;;8.27;3.70;;;17.80;99.90;;;;;;4943131;29;20180;-89
2021/08/04 05:58:47;;;;;;;7.47;3.83;;;;;;;;;;4942574;29;20183;-90
2021/08/04 06:01:13;;;;;;;6.88;3.58;;;18.00;99.90;;;;;;4943186;29;20273;-88
2021/08/04 06:03:46;;;;;;;6.75;3.30;;;18.30;99.90;;;;;;4940545;29;20175;-90
2021/08/04 06:06:12;;;;;;;6.72;3.50;;;;;;;;;;4910199;29;20183;-90
2021/08/04 06:08:39;;;;;;;8.35;3.85;;;;;;;;;;4941890;29;20230;-90
2021/08/04 06:11:07;;;;;;;8.25;4.07;;;18.50;99.90;;;;;;4941138;29;20542;-90
2021/08/04 06:13:33;;;;;;;7.75;3.58;;;;;;;;;;4943414;28;20250;-90
2021/08/04 06:16:25;;;;;;;6.97;4.03;;;18.80;99.90;;;;;;4960353;28;20691;-91
2021/08/04 06:18:51;;;;;;;6.78;3.33;;;;;;;;;;4961827;29;20178;-93
2021/08/04 06:21:30;;;;;;;6.38;3.47;;;19.20;99.90;;;;;;4955714;29;20194;-91
2021/08/04 06:24:16;;;;;;;6.18;3.35;;;19.30;99.90;;;;;;4946803;29;20171;-92
2021/08/04 06:26:45;;;;;;;6.32;3.53;;;;;;;;;;4959263;29;20817;-89
2021/08/04 06:29:11;;;;;;;5.65;3.00;;;;;;;;;;4967496;29;20187;-90
2021/08/04 06:35:17;;;;;;;5.03;2.88;;;19.90;99.90;;;;;;4912705;29;20246;-95
2021/08/04 06:37:49;;;;;;;4.10;2.88;;;;;;;;;;4880376;29;20188;-93
2021/08/04 06:40:27;;;;;;;;;;;;;;;;;;;;;
2021/08/04 06:48:47;;;;;;;4.30;2.92;;;19.90;99.90;;;;;;5304353;23;20247;-87
2021/08/04 06:51:16;;;;;;;5.30;2.83;;;20.20;99.90;;;;;;4937864;29;20201;-88
2021/08/04 06:53:46;;;;;;;4.22;2.83;;;20.20;99.90;;;;;;4923328;29;20211;-94
2021/08/04 06:56:12;;;;;;;4.40;3.05;;;20.10;99.90;;;;;;4955572;29;20506;-90
2021/08/04 06:58:38;;;;;;;6.95;3.00;;;20.00;99.90;;;;;;4955250;29;20202;-89
2021/08/04 07:01:04;;;;;;;2.97;2.58;;;19.90;99.90;;;;;;4942001;28;20186;-89
2021/08/04 07:03:29;;;;;;;3.92;3.35;;;19.90;99.90;;;;;;4943230;29;20195;-92
2021/08/04 07:05:55;;;;;;;3.58;2.67;;;19.90;99.90;;;;;;4922182;29;20187;-88
2021/08/04 07:08:21;;;;;;;5.25;2.75;;;20.00;99.90;;;;;;4937993;29;20624;-87
2021/08/04 07:10:48;;;;;;;3.50;3.20;;;;;;;;;;4955102;29;20684;-85
2021/08/04 07:13:14;;;;;;;6.57;2.97;;;20.10;99.90;;;;;;4937532;29;20175;-86
2021/08/04 07:15:39;;;;;;;6.50;3.03;;;20.10;99.90;;;;;;4937005;29;20652;-87
2021/08/04 07:18:09;;;;;;;4.07;2.65;;;20.10;99.90;;;;;;4940210;28;20434;-88
2021/08/04 07:20:35;;;;;;;4.72;3.10;;;20.10;99.90;;;;;;4946437;29;20183;-87
2021/08/04 07:23:01;;;;;;;3.47;2.75;;;20.10;99.90;;;;;;4978206;28;20256;-87
2021/08/04 07:25:27;;;;;;;3.85;3.20;;;20.10;99.90;;;;;;4967800;28;20171;-90
2021/08/04 07:27:53;;;;;;;4.35;3.03;;;20.10;99.90;;;;;;4922884;29;20211;-87
2021/08/04 07:30:19;;;;;;;4.82;2.92;;;20.10;99.90;;;;;;4954455;29;20175;-86
2021/08/04 07:32:44;;;;;;;3.78;2.80;;;20.20;99.90;;;;;;4936996;29;20179;-89
2021/08/04 07:35:10;;;;;;;7.00;3.40;;;20.20;99.90;;;;;;4945620;28;20198;-85
2021/08/04 07:37:36;;;;;;;10.75;4.68;;;20.20;99.90;;;;;;4961384;28;20673;-88
2021/08/04 07:40:05;;;;;;;3.90;3.00;;;20.30;99.90;;;;;;4937464;29;20201;-85
2021/08/04 07:42:31;;;;;;;8.27;3.50;;;20.40;99.90;;;;;;4936320;29;20591;-85
2021/08/04 07:44:56;;;;;;;6.50;2.88;;;20.40;99.90;;;;;;4935929;29;20211;-86
2021/08/04 07:47:22;;;;;;;4.20;3.13;;;20.50;99.90;;;;;;4935904;29;20672;-87
2021/08/04 07:49:48;;;;;;;5.85;2.90;;;20.60;99.90;;;;;;4919542;29;20235;-84
2021/08/04 07:52:14;;;;;;;4.13;3.20;;;20.70;99.90;;;;;;4919823;29;20172;-84
2021/08/04 07:54:41;;;;;;;5.13;2.80;;;20.70;99.90;;;;;;4951509;29;20207;-87
2021/08/04 07:57:07;;;;;;;3.45;2.40;;;20.80;99.90;;;;;;4952330;29;20609;-87
2021/08/04 07:59:33;;;;;;;5.18;1.77;;;20.80;99.90;;;;;;4954198;29;20179;-87
2021/08/04 08:01:58;;;;;;;2.58;1.83;;;20.80;99.90;;;;;;4955122;29;20183;-86
2021/08/04 08:04:24;;;;;;;6.97;2.80;;;20.80;99.90;;;;;;4922358;29;20194;-87
2021/08/04 08:06:50;;;;;;;4.15;2.10;;;20.80;99.90;;;;;;4955138;29;20183;-86
2021/08/04 08:09:21;;;;;;;4.78;2.35;;;20.90;99.90;;;;;;4937730;29;20287;-87
2021/08/04 08:11:47;;;;;;;2.20;1.80;;;20.90;99.90;;;;;;4954799;28;20164;-86
2021/08/04 08:14:13;;;;;;;2.28;2.00;;;21.00;99.90;;;;;;4958330;29;20685;-87
2021/08/04 08:16:38;;;;;;;2.60;1.95;;;21.00;99.90;;;;;;4941244;29;20179;-87
2021/08/04 08:19:05;;;;;;;10.80;4.63;;;21.00;99.90;;;;;;4924626;29;20179;-86
2021/08/04 08:21:31;;;;;;;3.97;2.58;;;21.00;99.90;;;;;;4941131;29;20203;-87
2021/08/04 08:23:57;;;;;;;6.78;3.22;;;21.10;99.90;;;;;;4958271;29;20233;-87
2021/08/04 08:26:23;;;;;;;3.13;1.95;;;21.10;99.90;;;;;;4941183;29;20664;-87
2021/08/04 08:28:49;;;;;;;3.70;1.90;;;;;;;;;;4958171;29;20183;-87
2021/08/04 08:31:14;;;;;;;2.83;1.73;;;21.10;99.90;;;;;;4958268;29;20175;-87
2021/08/04 08:33:40;;;;;;;2.47;2.08;;;21.10;99.90;;;;;;4957725;29;20613;-87
2021/08/04 08:36:06;;;;;;;3.00;2.30;;;21.30;99.90;;;;;;4940891;29;20660;-88
2021/08/04 08:38:32;;;;;;;5.10;1.95;;;;;;;;;;4958021;29;20187;-86
2021/08/04 08:40:58;;;;;;;2.22;1.67;;;21.30;99.90;;;;;;4940812;29;20190;-87
2021/08/04 08:43:24;;;;;;;3.33;2.10;;;21.40;99.90;;;;;;4940733;29;20179;-88
2021/08/04 08:45:51;;;;;;;3.88;2.33;;;21.50;99.90;;;;;;4957878;29;20190;-87
2021/08/04 08:48:18;;;;;;;7.70;2.67;;;21.50;99.90;;;;;;4958254;29;20171;-87
2021/08/04 08:50:49;;;;;;;3.22;2.00;;;21.70;99.90;;;;;;4940515;29;20226;-88
2021/08/04 08:53:15;;;;;;;2.90;1.73;;;21.90;99.90;;;;;;4940552;29;20233;-88
2021/08/04 08:55:41;;;;;;;4.13;2.13;;;;;;;;;;4957355;29;20243;-87
2021/08/04 08:58:10;;;;;;;3.30;1.88;;;22.00;99.90;;;;;;4940691;29;20250;-86
2021/08/04 09:00:36;;;;;;;4.20;2.75;;;21.80;99.90;;;;;;4957629;29;20171;-87
2021/08/04 09:03:02;;;;;;;7.30;2.15;;;21.80;99.90;;;;;;4943687;29;20175;-87
2021/08/04 09:05:27;;;;;;;2.38;2.10;;;21.80;99.90;;;;;;4961237;29;20190;-88
2021/08/04 09:07:53;;;;;;;5.30;2.10;;;21.70;99.90;;;;;;4912712;29;20536;-86
2021/08/04 09:10:34;;;;;;;3.53;2.17;;;21.60;99.90;;;;;;4942509;29;20238;-86
2021/08/04 09:13:02;;;;;;;3.78;2.13;;;21.60;99.90;;;;;;4958116;29;20230;-86
2021/08/04 09:15:37;;;;;;;3.60;2.00;;;21.60;99.90;;;;;;4940824;29;20261;-87
2021/08/04 09:18:08;;;;;;;4.72;2.22;;;21.60;99.90;;;;;;4941489;29;20175;-87
2021/08/04 09:21:00;;;;;;;5.70;2.58;;;21.80;99.90;;;;;;4941880;29;20199;-87
2021/08/04 09:23:27;;;;;;;2.88;2.00;;;21.70;99.90;;;;;;4957831;28;20765;-87
2021/08/04 09:26:14;;;;;;;3.55;2.63;;;21.80;99.90;;;;;;4939689;29;20183;-87
2021/08/04 09:29:06;;;;;;;6.47;2.60;;;21.90;99.90;;;;;;4940007;29;20182;-88
2021/08/04 09:31:43;;;;;;;2.20;2.00;;;22.00;99.90;;;;;;4954553;29;20196;-86
2021/08/04 09:34:28;;;;;;;3.10;2.40;;;22.10;99.90;;;;;;4935455;29;20534;-86
2021/08/04 09:37:09;;;;;;;2.35;2.15;;;22.20;99.90;;;;;;4937907;29;20657;-85
2021/08/04 09:39:45;;;;;;;3.33;2.40;;;22.20;99.90;;;;;;4944165;29;20516;-87
2021/08/04 09:42:12;;;;;;;2.10;1.90;;;22.10;99.90;;;;;;4955108;29;20179;-86
2021/08/04 09:44:53;;;;;;;4.82;2.22;;;22.50;99.90;;;;;;4918932;29;20190;-86
2021/08/04 09:47:19;;;;;;;3.17;2.40;;;;;;;;;;4955591;29;20187;-88
2021/08/04 09:49:55;;;;;;;2.97;2.25;;;22.50;99.90;;;;;;4946188;29;20255;-85
2021/08/04 09:52:21;;;;;;;3.90;2.17;;;;;;;;;;4903400;29;20188;-88
2021/08/04 09:54:46;;;;;;;3.97;1.90;;;22.60;99.90;;;;;;4934388;29;20258;-88
2021/08/04 09:57:12;;;;;;;2.42;2.00;;;22.60;99.90;;;;;;4935503;29;20184;-87
2021/08/04 09:59:38;;;;;;;4.65;2.22;;;22.50;99.90;;;;;;4935053;29;20258;-87
2021/08/04 10:02:05;;;;;;;3.65;2.10;;;22.40;99.90;;;;;;4917767;29;20187;-86
2021/08/04 10:04:32;;;;;;;2.63;2.20;;;22.20;99.90;;;;;;4903786;29;20267;-85
2021/08/04 10:07:08;;;;;;;3.05;2.28;;;22.00;99.90;;;;;;4917227;29;20180;-86
2021/08/04 10:09:35;;;;;;;3.78;2.30;;;21.90;99.90;;;;;;4915886;29;20580;-85
2021/08/04 10:12:02;;;;;;;2.80;2.50;;;21.90;99.90;;;;;;4929746;29;20196;-85
2021/08/04 10:14:28;;;;;;;3.90;2.55;;;21.90;99.90;;;;;;4933026;29;20239;-85
2021/08/04 10:16:54;;;;;;;3.97;2.42;;;22.00;99.90;;;;;;4897825;29;20699;-84
2021/08/04 10:19:22;;;;;;;5.50;2.65;;;22.00;99.90;;;;;;4930940;29;20234;-84
2021/08/04 10:21:50;;;;;;;6.25;2.72;;;22.10;99.90;;;;;;4931038;29;20192;-85
2021/08/04 10:24:16;;;;;;;6.03;2.20;;;22.10;99.90;;;;;;4933958;29;20191;-84
2021/08/04 10:26:42;;;;;;;2.97;2.05;;;22.20;99.90;;;;;;4916406;29;20188;-83
2021/08/04 10:29:09;;;;;;;3.25;2.20;;;22.30;99.90;;;;;;4917320;29;20659;-84
2021/08/04 10:31:36;;;;;;;4.18;2.03;;;22.30;99.90;;;;;;4901127;29;20195;-85
2021/08/04 10:34:04;;;;;;;3.13;2.10;;;22.40;99.90;;;;;;4917971;29;20209;-85
2021/08/04 10:36:37;;;;;;;2.20;2.00;;;22.50;99.90;;;;;;4917179;29;20196;-85
2021/08/04 10:39:09;;;;;;;1.98;1.83;;;22.60;99.90;;;;;;4912811;29;20660;-85
2021/08/04 10:41:36;;;;;;;2.00;1.80;;;;;;;;;;4935282;29;20183;-87
2021/08/04 10:44:05;;;;;;;2.15;1.90;;;22.70;99.90;;;;;;4934337;29;20335;-84
2021/08/04 10:46:31;;;;;;;2.85;2.10;;;;;;;;;;4921241;29;20187;-84
2021/08/04 10:49:06;;;;;;;3.67;1.70;;;22.80;99.90;;;;;;4919147;28;20200;-85
2021/08/04 10:51:50;;;;;;;8.68;2.20;;;22.90;99.90;;;;;;4952276;28;20182;-84
2021/08/04 10:54:18;;;;;;;3.00;1.88;;;23.00;99.90;;;;;;4936254;28;20298;-85
2021/08/04 10:56:44;;;;;;;5.97;2.03;;;;;;;;;;4951945;28;20210;-85
2021/08/04 10:59:10;;;;;;;4.75;2.13;;;22.90;99.90;;;;;;4939307;28;20530;-85
2021/08/04 11:01:37;;;;;;;4.28;2.33;;;22.70;99.90;;;;;;4935426;28;20306;-85
2021/08/04 11:04:04;;;;;;;3.78;2.28;;;22.60;99.90;;;;;;4932951;28;20182;-85
2021/08/04 11:06:30;;;;;;;2.13;1.92;;;22.70;99.90;;;;;;4933345;28;20234;-86
2021/08/04 11:09:14;;;;;;;5.50;2.55;;;22.40;99.90;;;;;;4919330;28;20225;-86
2021/08/04 11:11:52;;;;;;;5.20;2.60;;;22.30;99.90;;;;;;4938355;28;20274;-84
2021/08/04 11:14:54;;;;;;;3.15;2.08;;;22.60;99.90;;;;;;4950551;28;20214;-86
2021/08/04 11:17:20;;;;;;;3.10;2.28;;;;;;;;;;4938270;28;20183;-86
2021/08/04 11:19:58;;;;;;;3.95;2.40;;;22.60;99.90;;;;;;4936066;28;20186;-87
2021/08/04 11:22:37;;;;;;;4.25;2.42;;;23.00;99.90;;;;;;4952322;28;20190;-86
2021/08/04 11:25:09;;;;;;;5.63;2.33;;;23.20;99.90;;;;;;4954576;28;20210;-85
2021/08/04 11:27:57;;;;;;;4.10;2.35;;;23.30;99.90;;;;;;4933588;28;20192;-86
2021/08/04 11:30:39;;;;;;;4.30;2.25;;;23.30;99.90;;;;;;4934778;28;20190;-84
2021/08/04 11:33:24;;;;;;;6.18;2.85;;;23.20;99.90;;;;;;4951866;28;20198;-85
2021/08/04 11:36:21;;;;;;;4.68;2.17;;;23.10;99.90;;;;;;4934276;28;20215;-85
2021/08/04 11:38:50;;;;;;;2.65;1.95;;;23.10;99.90;;;;;;4932688;28;20190;-85
2021/08/04 11:41:19;;;;;;;3.03;2.10;;;23.00;99.90;;;;;;4947158;28;20187;-85
2021/08/04 11:43:45;;;;;;;3.70;2.53;;;;;;;;;;4934960;28;20189;-86
2021/08/04 11:46:27;;;;;;;3.35;2.40;;;22.90;99.90;;;;;;4934779;28;20271;-84
2021/08/04 11:48:53;;;;;;;9.57;2.83;;;22.80;99.90;;;;;;4935931;28;20198;-86
2021/08/04 11:51:34;;;;;;;6.93;3.10;;;22.70;99.90;;;;;;4938669;28;20534;-82
2021/08/04 11:54:00;;;;;;;4.20;2.60;;;22.50;99.90;;;;;;4937788;28;20326;-85
2021/08/04 11:56:26;;;;;;;4.35;2.75;;;22.50;99.90;;;;;;4956832;28;20262;-86
2021/08/04 11:58:52;;;;;;;3.25;2.55;;;;;;;;;;4937326;28;20571;-86
2021/08/04 12:01:19;;;;;;;3.47;3.03;;;;;;;;;;4939845;28;20278;-87
2021/08/04 12:03:45;;;;;;;5.35;3.05;;;23.10;99.90;;;;;;4938465;28;20186;-87
2021/08/04 12:06:18;;;;;;;6.95;3.17;;;23.30;99.90;;;;;;4936713;28;20577;-88
2021/08/04 12:08:44;;;;;;;3.30;3.00;;;;;;;;;;4938984;28;20183;-89
2021/08/04 12:11:10;;;;;;;4.95;3.10;;;23.20;99.90;;;;;;4956757;28;20214;-90
2021/08/04 12:13:36;;;;;;;4.20;3.22;;;23.00;99.90;;;;;;4922284;28;20184;-89
2021/08/04 12:16:03;;;;;;;3.92;3.40;;;22.90;99.90;;;;;;4955952;28;20209;-88
2021/08/04 12:18:29;;;;;;;4.07;3.25;;;22.70;99.90;;;;;;4955656;28;20188;-87
2021/08/04 12:20:55;;;;;;;7.80;5.20;;;22.60;99.90;;;;;;4938575;28;20183;-88
2021/08/04 12:23:23;;;;;;;7.03;5.70;;;22.60;99.90;;;;;;4954862;28;20179;-88
2021/08/04 12:25:59;;;;;;;9.88;7.18;;;22.60;99.90;;;;;;4955809;28;20195;-88
2021/08/04 12:28:31;;;;;;;11.95;9.60;;;22.80;99.90;;;;;;4937666;28;20191;-88
2021/08/04 12:30:58;;;;;;;15.63;9.52;;;23.00;99.90;;;;;;4920334;28;20195;-87
2021/08/04 12:33:27;;;;;;;15.43;10.10;;;23.20;99.90;;;;;;4935759;28;20171;-86
2021/08/04 12:36:04;;;;;;;19.08;13.43;;;23.50;99.90;;;;;;4953506;28;20680;-86
2021/08/04 12:38:36;;;;;;;13.35;11.18;;;23.50;99.90;;;;;;4953789;28;20182;-86
2021/08/04 12:41:03;;;;;;;14.25;12.32;;;23.70;99.90;;;;;;4937803;28;20512;-86
2021/08/04 12:43:31;;;;;;;15.63;12.70;;;23.50;99.90;;;;;;4935710;28;20175;-87
2021/08/04 12:45:59;;;;;;;13.85;11.35;;;23.30;99.90;;;;;;4936996;28;20188;-88
2021/08/04 12:48:39;;;;;;;14.95;12.05;;;23.60;99.90;;;;;;4937666;28;20184;-88
2021/08/04 12:51:10;;;;;;;14.63;10.82;;;23.70;99.90;;;;;;4936942;29;20243;-87
2021/08/04 12:53:37;;;;;;;13.40;10.75;;;23.80;99.90;;;;;;4920384;29;20194;-86
2021/08/04 12:56:08;;;;;;;16.02;11.50;;;23.80;99.90;;;;;;4918441;29;20212;-86
2021/08/04 12:59:01;;;;;;;18.23;12.48;;;23.70;99.90;;;;;;4920305;29;20176;-90
2021/08/04 13:01:33;;;;;;;14.55;10.43;;;23.50;99.90;;;;;;4939273;29;20645;-86
2021/08/04 13:04:32;;;;;;;11.95;10.63;;;23.50;99.90;;;;;;4937214;29;20191;-87
2021/08/04 13:07:11;;;;;;;17.40;10.70;;;23.50;99.90;;;;;;4906199;29;20203;-86
2021/08/04 13:09:38;;;;;;;14.50;10.85;;;23.50;99.90;;;;;;4937614;29;20179;-86
2021/08/04 13:12:25;;;;;;;13.60;10.88;;;23.60;99.90;;;;;;4920520;29;20332;-85
2021/08/04 13:15:13;;;;;;;14.57;12.23;;;23.60;99.90;;;;;;4919512;29;20254;-85
2021/08/04 13:17:39;;;;;;;12.68;11.25;;;;;;;;;;4936543;29;20176;-85
2021/08/04 13:20:10;;;;;;;11.75;10.55;;;23.70;99.90;;;;;;4919095;29;20194;-86
2021/08/04 13:23:15;;;;;;;16.13;10.82;;;23.70;99.90;;;;;;4919384;29;20171;-86
2021/08/04 13:25:44;;;;;;;18.15;11.13;;;23.70;99.90;;;;;;4858695;29;20209;-85
2021/08/04 13:28:17;;;;;;;15.82;12.20;;;23.90;99.90;;;;;;4913970;29;20505;-85
2021/08/04 13:30:55;;;;;;;14.65;12.02;;;24.00;99.90;;;;;;4926856;29;20194;-86